createdAt,value
2017-01-31T06:39:03.031Z,0
2017-01-31T06:39:36.250Z,0
2017-01-31T06:40:09.120Z,0
2017-01-31T06:40:42.004Z,0
2017-01-31T06:41:14.960Z,0
2017-01-31T06:41:48.725Z,0
2017-01-31T06:42:22.566Z,0
2017-01-31T06:42:57.154Z,0
2017-01-31T06:43:30.125Z,0
2017-01-31T06:44:03.144Z,0
2017-01-31T06:44:36.109Z,0
2017-01-31T06:45:09.012Z,0
2017-01-31T06:45:41.803Z,0
2017-01-31T06:46:14.522Z,0
2017-01-31T06:46:47.313Z,0
2017-01-31T06:47:20.272Z,0
2017-01-31T06:47:53.205Z,0
2017-01-31T06:48:26.070Z,0
2017-01-31T06:48:58.930Z,0
2017-01-31T06:49:31.890Z,0
2017-01-31T06:50:04.842Z,0
2017-01-31T06:50:37.694Z,4
2017-01-31T06:51:10.511Z,4
2017-01-31T06:51:43.388Z,4
2017-01-31T06:52:16.338Z,4
2017-01-31T06:52:49.361Z,4
2017-01-31T06:53:23.892Z,4
2017-01-31T06:53:57.751Z,4
2017-01-31T06:55:51.050Z,4
2017-01-31T06:56:24.259Z,4
2017-01-31T06:56:57.091Z,4
2017-01-31T06:57:30.515Z,4
2017-01-31T06:58:05.568Z,4
2017-01-31T06:58:39.690Z,8
2017-01-31T06:59:12.900Z,4
2017-01-31T06:59:47.231Z,4
2017-01-31T07:00:19.954Z,4
2017-01-31T07:00:53.241Z,4
2017-01-31T07:01:25.960Z,8
2017-01-31T07:02:01.739Z,8
2017-01-31T07:02:35.485Z,8
2017-01-31T07:03:08.618Z,8
2017-01-31T07:03:42.325Z,8
2017-01-31T07:04:15.100Z,8
2017-01-31T07:04:47.869Z,8
2017-01-31T07:05:20.586Z,8
2017-01-31T07:05:53.361Z,8
2017-01-31T07:06:27.509Z,12
2017-01-31T07:07:00.722Z,12
2017-01-31T07:07:33.465Z,8
2017-01-31T07:08:06.184Z,12
2017-01-31T07:08:38.896Z,12
2017-01-31T07:09:11.630Z,12
2017-01-31T07:09:44.369Z,12
2017-01-31T07:10:17.100Z,12
2017-01-31T07:10:50.394Z,12
2017-01-31T07:11:23.330Z,12
2017-01-31T07:11:56.046Z,16
2017-01-31T07:12:28.779Z,16
2017-01-31T07:13:01.505Z,16
2017-01-31T07:13:34.252Z,16
2017-01-31T07:14:07.615Z,16
2017-01-31T07:14:40.356Z,20
2017-01-31T07:15:13.084Z,20
2017-01-31T07:15:45.811Z,20
2017-01-31T07:16:18.529Z,20
2017-01-31T07:16:51.298Z,20
2017-01-31T07:17:24.125Z,24
2017-01-31T07:17:57.280Z,24
2017-01-31T07:18:30.044Z,24
2017-01-31T07:19:02.781Z,24
2017-01-31T07:19:35.556Z,24
2017-01-31T07:20:08.296Z,28
2017-01-31T07:20:41.031Z,28
2017-01-31T07:21:13.762Z,28
2017-01-31T07:21:46.494Z,24
2017-01-31T07:22:19.225Z,24
2017-01-31T07:22:52.000Z,24
2017-01-31T07:23:27.467Z,24
2017-01-31T07:24:00.977Z,24
2017-01-31T07:24:33.708Z,28
2017-01-31T07:25:06.436Z,28
2017-01-31T07:25:39.170Z,28
2017-01-31T07:26:11.945Z,32
2017-01-31T07:26:44.669Z,32
2017-01-31T07:27:17.396Z,36
2017-01-31T07:27:51.148Z,40
2017-01-31T07:28:23.901Z,40
2017-01-31T07:28:56.661Z,40
2017-01-31T07:29:29.410Z,40
2017-01-31T07:30:02.215Z,44
2017-01-31T07:30:34.946Z,44
2017-01-31T07:31:07.711Z,44
2017-01-31T07:31:40.535Z,48
2017-01-31T07:32:13.390Z,52
2017-01-31T07:32:46.131Z,56
2017-01-31T07:33:18.989Z,52
2017-01-31T07:33:51.731Z,52
2017-01-31T07:34:24.441Z,48
2017-01-31T07:34:57.150Z,52
2017-01-31T07:35:30.122Z,52
2017-01-31T07:36:02.895Z,56
2017-01-31T07:36:37.610Z,60
2017-01-31T07:37:10.343Z,60
2017-01-31T07:37:43.070Z,64
2017-01-31T07:38:15.800Z,64
2017-01-31T07:38:48.536Z,60
2017-01-31T07:39:21.268Z,60
2017-01-31T07:39:54.010Z,60
2017-01-31T07:40:26.734Z,56
2017-01-31T07:40:59.465Z,60
2017-01-31T07:41:32.192Z,60
2017-01-31T07:42:04.928Z,64
2017-01-31T07:42:37.660Z,64
2017-01-31T07:43:10.391Z,64
2017-01-31T07:43:43.114Z,60
2017-01-31T07:44:15.845Z,64
2017-01-31T07:44:48.578Z,64
2017-01-31T07:45:21.300Z,60
2017-01-31T07:45:54.023Z,64
2017-01-31T07:46:26.749Z,64
2017-01-31T07:46:59.474Z,68
2017-01-31T07:47:32.196Z,72
2017-01-31T07:48:04.938Z,76
2017-01-31T07:48:37.670Z,80
2017-01-31T07:49:10.407Z,80
2017-01-31T07:49:43.141Z,88
2017-01-31T07:50:15.872Z,92
2017-01-31T07:50:48.590Z,92
2017-01-31T07:51:21.356Z,92
2017-01-31T07:51:54.065Z,92
2017-01-31T07:52:26.792Z,92
2017-01-31T07:52:59.514Z,92
2017-01-31T07:53:32.241Z,92
2017-01-31T07:54:04.972Z,92
2017-01-31T07:54:37.717Z,92
2017-01-31T07:55:10.441Z,96
2017-01-31T07:55:43.173Z,100
2017-01-31T07:56:15.899Z,100
2017-01-31T07:56:48.620Z,104
2017-01-31T07:57:21.345Z,104
2017-01-31T07:57:54.092Z,104
2017-01-31T07:58:26.818Z,108
2017-01-31T07:58:59.532Z,112
2017-01-31T07:59:32.242Z,112
2017-01-31T08:00:05.005Z,116
2017-01-31T08:00:37.745Z,116
2017-01-31T08:01:10.471Z,120
2017-01-31T08:01:45.085Z,120
2017-01-31T08:02:18.680Z,120
2017-01-31T08:02:51.401Z,120
2017-01-31T08:03:24.122Z,120
2017-01-31T08:03:56.845Z,120
2017-01-31T08:04:29.560Z,120
2017-01-31T08:05:02.327Z,124
2017-01-31T08:05:35.077Z,128
2017-01-31T08:06:07.796Z,120
2017-01-31T08:06:40.533Z,120
2017-01-31T08:07:13.251Z,124
2017-01-31T08:07:45.973Z,132
2017-01-31T08:08:18.694Z,140
2017-01-31T08:08:51.433Z,144
2017-01-31T08:09:24.159Z,148
2017-01-31T08:09:56.954Z,152
2017-01-31T08:10:29.687Z,152
2017-01-31T08:11:02.407Z,156
2017-01-31T08:11:35.138Z,152
2017-01-31T08:12:07.855Z,156
2017-01-31T08:12:40.588Z,156
2017-01-31T08:13:13.321Z,160
2017-01-31T08:13:46.061Z,160
2017-01-31T08:14:18.799Z,164
2017-01-31T08:14:51.520Z,164
2017-01-31T08:15:24.261Z,168
2017-01-31T08:15:57.000Z,168
2017-01-31T08:16:29.746Z,168
2017-01-31T08:17:02.494Z,168
2017-01-31T08:17:35.228Z,168
2017-01-31T08:18:07.958Z,172
2017-01-31T08:18:40.683Z,168
2017-01-31T08:19:13.418Z,164
2017-01-31T08:19:46.144Z,164
2017-01-31T08:20:18.878Z,160
2017-01-31T08:20:51.607Z,160
2017-01-31T08:21:24.327Z,164
2017-01-31T08:21:57.055Z,164
2017-01-31T08:22:29.786Z,164
2017-01-31T08:23:02.506Z,160
2017-01-31T08:23:35.229Z,156
2017-01-31T08:24:07.953Z,156
2017-01-31T08:24:40.689Z,152
2017-01-31T08:25:13.427Z,160
2017-01-31T08:25:46.175Z,160
2017-01-31T08:26:18.897Z,164
2017-01-31T08:26:51.620Z,164
2017-01-31T08:27:24.346Z,168
2017-01-31T08:27:57.997Z,176
2017-01-31T08:28:30.717Z,184
2017-01-31T08:29:03.449Z,180
2017-01-31T08:29:36.172Z,172
2017-01-31T08:30:08.889Z,168
2017-01-31T08:30:41.605Z,160
2017-01-31T08:31:14.339Z,152
2017-01-31T08:31:47.082Z,148
2017-01-31T08:32:19.807Z,148
2017-01-31T08:32:52.535Z,148
2017-01-31T08:33:25.259Z,160
2017-01-31T08:33:57.999Z,172
2017-01-31T08:34:30.723Z,180
2017-01-31T08:35:03.461Z,184
2017-01-31T08:35:36.176Z,188
2017-01-31T08:36:08.897Z,180
2017-01-31T08:36:41.612Z,172
2017-01-31T08:37:14.327Z,164
2017-01-31T08:37:47.057Z,152
2017-01-31T08:38:19.810Z,152
2017-01-31T08:38:52.542Z,164
2017-01-31T08:39:25.272Z,176
2017-01-31T08:39:58.010Z,192
2017-01-31T08:40:30.726Z,192
2017-01-31T08:41:03.481Z,196
2017-01-31T08:41:36.214Z,196
2017-01-31T08:42:08.964Z,196
2017-01-31T08:42:41.688Z,204
2017-01-31T08:43:14.460Z,204
2017-01-31T08:43:47.185Z,200
2017-01-31T08:44:19.915Z,196
2017-01-31T08:44:52.642Z,188
2017-01-31T08:45:25.377Z,192
2017-01-31T08:45:58.105Z,200
2017-01-31T08:46:30.823Z,208
2017-01-31T08:47:03.543Z,208
2017-01-31T08:47:36.269Z,208
2017-01-31T08:48:08.983Z,200
2017-01-31T08:48:41.727Z,204
2017-01-31T08:49:14.462Z,204
2017-01-31T08:49:47.180Z,220
2017-01-31T08:50:20.070Z,236
2017-01-31T08:50:52.788Z,240
2017-01-31T08:51:25.505Z,260
2017-01-31T08:51:58.229Z,272
2017-01-31T08:52:30.962Z,268
2017-01-31T08:53:03.687Z,264
2017-01-31T08:53:36.420Z,264
2017-01-31T08:54:09.268Z,268
2017-01-31T08:54:41.992Z,264
2017-01-31T08:55:14.714Z,248
2017-01-31T08:55:47.428Z,244
2017-01-31T08:56:20.159Z,236
2017-01-31T08:56:52.873Z,232
2017-01-31T08:57:25.610Z,232
2017-01-31T08:57:58.324Z,232
2017-01-31T08:58:31.039Z,232
2017-01-31T08:59:03.782Z,236
2017-01-31T08:59:36.520Z,236
2017-01-31T09:00:09.245Z,248
2017-01-31T09:00:41.974Z,264
2017-01-31T09:01:14.684Z,276
2017-01-31T09:01:47.419Z,276
2017-01-31T09:02:20.150Z,276
2017-01-31T09:02:52.871Z,276
2017-01-31T09:03:25.583Z,288
2017-01-31T09:03:58.317Z,288
2017-01-31T09:04:31.056Z,276
2017-01-31T09:05:03.792Z,272
2017-01-31T09:05:36.519Z,276
2017-01-31T09:06:09.242Z,292
2017-01-31T09:06:41.965Z,292
2017-01-31T09:07:14.723Z,292
2017-01-31T09:07:47.450Z,296
2017-01-31T09:08:20.183Z,300
2017-01-31T09:08:52.932Z,300
2017-01-31T09:09:25.678Z,296
2017-01-31T09:09:58.412Z,292
2017-01-31T09:10:32.586Z,304
2017-01-31T09:11:05.352Z,328
2017-01-31T09:11:38.075Z,336
2017-01-31T09:12:10.826Z,344
2017-01-31T09:13:17.695Z,332
2017-01-31T09:13:50.429Z,320
2017-01-31T09:14:23.159Z,324
2017-01-31T09:14:55.893Z,348
2017-01-31T09:15:28.615Z,352
2017-01-31T09:16:02.032Z,336
2017-01-31T09:16:34.760Z,288
2017-01-31T09:17:07.494Z,256
2017-01-31T09:17:40.222Z,248
2017-01-31T09:18:12.971Z,244
2017-01-31T09:18:46.656Z,260
2017-01-31T09:19:19.371Z,256
2017-01-31T09:19:52.099Z,252
2017-01-31T09:20:24.823Z,252
2017-01-31T09:20:57.539Z,252
2017-01-31T09:21:30.263Z,260
2017-01-31T09:22:02.989Z,264
2017-01-31T09:22:35.711Z,264
2017-01-31T09:23:08.437Z,268
2017-01-31T09:23:41.819Z,280
2017-01-31T09:24:14.710Z,280
2017-01-31T09:24:47.452Z,276
2017-01-31T09:25:21.277Z,280
2017-01-31T09:25:54.095Z,276
2017-01-31T09:26:26.848Z,272
2017-01-31T09:27:01.059Z,268
2017-01-31T09:27:34.762Z,272
2017-01-31T09:28:07.500Z,280
2017-01-31T09:28:41.167Z,284
2017-01-31T09:29:13.978Z,276
2017-01-31T09:29:46.718Z,264
2017-01-31T09:30:19.449Z,248
2017-01-31T09:30:52.171Z,236
2017-01-31T09:31:24.906Z,232
2017-01-31T09:31:57.653Z,228
2017-01-31T09:32:30.381Z,228
2017-01-31T09:33:03.130Z,236
2017-01-31T09:33:35.864Z,244
2017-01-31T09:34:08.642Z,236
2017-01-31T09:34:42.204Z,228
2017-01-31T09:35:14.943Z,232
2017-01-31T09:35:47.679Z,236
2017-01-31T09:36:20.413Z,256
2017-01-31T09:36:53.135Z,268
2017-01-31T09:37:25.873Z,272
2017-01-31T09:37:58.610Z,260
2017-01-31T09:38:31.350Z,256
2017-01-31T09:39:04.087Z,256
2017-01-31T09:39:36.823Z,264
2017-01-31T09:40:09.549Z,268
2017-01-31T09:40:43.065Z,272
2017-01-31T09:41:15.791Z,276
2017-01-31T09:41:48.563Z,288
2017-01-31T09:42:21.288Z,308
2017-01-31T09:42:54.025Z,312
2017-01-31T09:43:26.761Z,308
2017-01-31T09:43:59.489Z,296
2017-01-31T09:44:32.241Z,304
2017-01-31T09:45:04.980Z,324
2017-01-31T09:45:37.704Z,320
2017-01-31T09:46:11.167Z,288
2017-01-31T09:46:44.749Z,268
2017-01-31T09:47:17.473Z,268
2017-01-31T09:47:50.214Z,272
2017-01-31T09:48:22.945Z,284
2017-01-31T09:48:55.670Z,300
2017-01-31T09:49:28.387Z,312
2017-01-31T09:50:01.120Z,316
2017-01-31T09:50:33.865Z,320
2017-01-31T09:51:06.595Z,320
2017-01-31T09:51:39.331Z,324
2017-01-31T09:52:12.069Z,312
2017-01-31T09:52:46.524Z,308
2017-01-31T09:53:19.276Z,312
2017-01-31T09:53:52.012Z,312
2017-01-31T09:54:24.739Z,324
2017-01-31T09:54:57.476Z,336
2017-01-31T09:55:30.221Z,336
2017-01-31T09:56:02.957Z,332
2017-01-31T09:56:35.679Z,328
2017-01-31T09:57:08.432Z,316
2017-01-31T09:57:41.162Z,308
2017-01-31T09:58:13.903Z,304
2017-01-31T09:58:46.713Z,300
2017-01-31T09:59:20.140Z,296
2017-01-31T09:59:52.868Z,296
2017-01-31T10:00:25.607Z,292
2017-01-31T10:00:58.356Z,300
2017-01-31T10:01:31.092Z,308
2017-01-31T10:02:03.829Z,316
2017-01-31T10:02:36.557Z,324
2017-01-31T10:03:09.291Z,332
2017-01-31T10:03:42.026Z,324
2017-01-31T10:04:14.768Z,308
2017-01-31T10:04:47.518Z,296
2017-01-31T10:05:21.242Z,284
2017-01-31T10:05:53.972Z,288
2017-01-31T10:06:26.709Z,296
2017-01-31T10:06:59.433Z,304
2017-01-31T10:07:32.151Z,324
2017-01-31T10:08:04.873Z,360
2017-01-31T10:08:37.602Z,404
2017-01-31T10:09:10.345Z,436
2017-01-31T10:09:43.079Z,436
2017-01-31T10:10:15.831Z,428
2017-01-31T10:10:50.036Z,420
2017-01-31T10:11:22.777Z,412
2017-01-31T10:11:55.512Z,400
2017-01-31T10:12:28.241Z,400
2017-01-31T10:13:00.950Z,400
2017-01-31T10:13:33.672Z,392
2017-01-31T10:14:06.391Z,368
2017-01-31T10:14:39.121Z,344
2017-01-31T10:15:11.850Z,332
2017-01-31T10:15:44.594Z,328
2017-01-31T10:16:17.326Z,332
2017-01-31T10:16:50.061Z,332
2017-01-31T10:17:22.797Z,332
2017-01-31T10:17:55.530Z,336
2017-01-31T10:18:28.270Z,344
2017-01-31T10:19:01.005Z,348
2017-01-31T10:19:33.746Z,360
2017-01-31T10:20:06.493Z,368
2017-01-31T10:20:39.251Z,372
2017-01-31T10:21:11.988Z,376
2017-01-31T10:21:44.711Z,372
2017-01-31T10:22:17.464Z,364
2017-01-31T10:22:50.207Z,364
2017-01-31T10:23:22.938Z,364
2017-01-31T10:23:55.671Z,364
2017-01-31T10:24:28.416Z,360
2017-01-31T10:25:01.145Z,356
2017-01-31T10:25:33.924Z,356
2017-01-31T10:26:06.650Z,348
2017-01-31T10:26:39.388Z,344
2017-01-31T10:27:12.146Z,340
2017-01-31T10:27:44.869Z,340
2017-01-31T10:28:17.602Z,340
2017-01-31T10:28:50.338Z,340
2017-01-31T10:29:23.098Z,332
2017-01-31T10:29:55.868Z,328
2017-01-31T10:30:28.583Z,324
2017-01-31T10:31:01.315Z,320
2017-01-31T10:31:34.059Z,324
2017-01-31T10:32:06.788Z,320
2017-01-31T10:32:39.532Z,324
2017-01-31T10:33:12.266Z,328
2017-01-31T10:33:45.022Z,328
2017-01-31T10:34:17.744Z,332
2017-01-31T10:34:50.481Z,340
2017-01-31T10:35:23.203Z,344
2017-01-31T10:35:55.948Z,352
2017-01-31T10:36:28.698Z,364
2017-01-31T10:37:01.437Z,364
2017-01-31T10:37:34.165Z,372
2017-01-31T10:38:06.902Z,376
2017-01-31T10:38:39.642Z,376
2017-01-31T10:39:12.373Z,372
2017-01-31T10:39:45.099Z,368
2017-01-31T10:40:17.822Z,364
2017-01-31T10:40:50.550Z,364
2017-01-31T10:41:23.292Z,364
2017-01-31T10:41:56.032Z,368
2017-01-31T10:42:28.768Z,372
2017-01-31T10:43:01.538Z,380
2017-01-31T10:43:34.265Z,388
2017-01-31T10:44:07.719Z,396
2017-01-31T10:44:40.457Z,396
2017-01-31T10:45:13.183Z,392
2017-01-31T10:45:45.909Z,392
2017-01-31T10:46:18.633Z,392
2017-01-31T10:46:51.364Z,384
2017-01-31T10:47:24.110Z,380
2017-01-31T10:47:56.841Z,376
2017-01-31T10:48:29.577Z,376
2017-01-31T10:49:02.306Z,376
2017-01-31T10:49:35.025Z,376
2017-01-31T10:50:07.757Z,376
2017-01-31T10:50:40.484Z,376
2017-01-31T10:51:14.246Z,380
2017-01-31T10:51:46.971Z,380
2017-01-31T10:52:19.705Z,384
2017-01-31T10:52:52.435Z,384
2017-01-31T10:53:25.212Z,392
2017-01-31T10:53:57.942Z,396
2017-01-31T10:54:30.668Z,404
2017-01-31T10:55:03.414Z,408
2017-01-31T10:55:36.127Z,412
2017-01-31T10:56:08.862Z,412
2017-01-31T10:56:41.597Z,408
2017-01-31T10:57:14.317Z,404
2017-01-31T10:57:47.053Z,400
2017-01-31T10:58:19.804Z,400
2017-01-31T10:58:52.531Z,396
2017-01-31T10:59:25.270Z,400
2017-01-31T10:59:57.998Z,396
2017-01-31T11:00:30.723Z,396
2017-01-31T11:01:03.452Z,392
2017-01-31T11:01:36.209Z,388
2017-01-31T11:02:08.959Z,384
2017-01-31T11:02:41.690Z,380
2017-01-31T11:03:14.418Z,376
2017-01-31T11:03:47.160Z,372
2017-01-31T11:04:19.909Z,368
2017-01-31T11:04:52.649Z,368
2017-01-31T11:05:25.388Z,380
2017-01-31T11:05:58.146Z,392
2017-01-31T11:06:30.874Z,412
2017-01-31T11:07:03.619Z,432
2017-01-31T11:07:36.356Z,448
2017-01-31T11:08:09.079Z,460
2017-01-31T11:08:41.824Z,476
2017-01-31T11:09:14.560Z,480
2017-01-31T11:09:47.296Z,472
2017-01-31T11:10:20.026Z,456
2017-01-31T11:10:52.747Z,440
2017-01-31T11:11:25.484Z,428
2017-01-31T11:11:58.222Z,416
2017-01-31T11:12:30.951Z,404
2017-01-31T11:13:03.682Z,396
2017-01-31T11:13:36.400Z,388
2017-01-31T11:14:09.154Z,384
2017-01-31T11:14:41.890Z,372
2017-01-31T11:15:14.620Z,368
2017-01-31T11:15:47.361Z,372
2017-01-31T11:16:20.100Z,376
2017-01-31T11:16:52.832Z,380
2017-01-31T11:17:25.560Z,380
2017-01-31T11:17:58.311Z,392
2017-01-31T11:18:31.101Z,400
2017-01-31T11:19:05.033Z,412
2017-01-31T11:19:37.774Z,420
2017-01-31T11:20:15.062Z,432
2017-01-31T11:20:47.779Z,452
2017-01-31T11:21:21.118Z,460
2017-01-31T11:21:53.905Z,456
2017-01-31T11:22:26.636Z,452
2017-01-31T11:22:59.367Z,444
2017-01-31T11:23:32.121Z,448
2017-01-31T11:24:05.778Z,456
2017-01-31T11:24:39.209Z,464
2017-01-31T11:25:11.924Z,472
2017-01-31T11:25:44.651Z,480
2017-01-31T11:26:17.407Z,488
2017-01-31T11:26:50.780Z,480
2017-01-31T11:27:23.584Z,460
2017-01-31T11:27:56.319Z,436
2017-01-31T11:28:29.050Z,428
2017-01-31T11:29:01.823Z,428
2017-01-31T11:29:34.545Z,436
2017-01-31T11:30:07.557Z,440
2017-01-31T11:30:40.391Z,444
2017-01-31T11:31:13.118Z,444
2017-01-31T11:31:45.864Z,440
2017-01-31T11:32:18.584Z,436
2017-01-31T11:32:51.309Z,424
2017-01-31T11:33:24.040Z,416
2017-01-31T11:33:56.822Z,400
2017-01-31T11:34:29.544Z,388
2017-01-31T11:35:02.275Z,376
2017-01-31T11:35:35.073Z,372
2017-01-31T11:36:08.008Z,368
2017-01-31T11:36:40.740Z,372
2017-01-31T11:37:13.498Z,372
2017-01-31T11:37:46.302Z,372
2017-01-31T11:38:19.042Z,368
2017-01-31T11:38:51.769Z,368
2017-01-31T11:39:24.517Z,372
2017-01-31T11:39:57.242Z,372
2017-01-31T11:40:29.973Z,372
2017-01-31T11:41:05.381Z,380
2017-01-31T11:41:39.191Z,388
2017-01-31T11:42:11.960Z,380
2017-01-31T11:42:44.691Z,368
2017-01-31T11:43:18.078Z,356
2017-01-31T11:43:51.225Z,340
2017-01-31T11:44:23.957Z,336
2017-01-31T11:44:56.695Z,340
2017-01-31T11:45:29.431Z,352
2017-01-31T11:46:02.175Z,352
2017-01-31T11:46:34.908Z,348
2017-01-31T11:47:07.647Z,340
2017-01-31T11:47:41.248Z,332
2017-01-31T11:48:13.993Z,332
2017-01-31T11:48:46.736Z,340
2017-01-31T11:49:19.454Z,348
2017-01-31T11:49:52.189Z,356
2017-01-31T11:50:24.938Z,372
2017-01-31T11:50:57.668Z,380
2017-01-31T11:51:30.404Z,388
2017-01-31T11:52:03.784Z,388
2017-01-31T11:52:36.559Z,384
2017-01-31T11:53:09.421Z,384
2017-01-31T11:53:42.188Z,384
2017-01-31T11:54:14.927Z,392
2017-01-31T11:54:47.650Z,388
2017-01-31T11:55:20.397Z,392
2017-01-31T11:55:53.136Z,384
2017-01-31T11:56:25.863Z,388
2017-01-31T11:56:58.597Z,388
2017-01-31T11:57:31.327Z,396
2017-01-31T11:58:04.069Z,412
2017-01-31T11:58:36.813Z,420
2017-01-31T11:59:09.533Z,428
2017-01-31T11:59:42.457Z,428
2017-01-31T12:00:15.432Z,424
2017-01-31T12:00:48.233Z,400
2017-01-31T12:01:20.953Z,384
2017-01-31T12:01:53.682Z,380
2017-01-31T12:02:26.418Z,376
2017-01-31T12:02:59.159Z,372
2017-01-31T12:03:31.896Z,376
2017-01-31T12:04:04.638Z,380
2017-01-31T12:04:37.363Z,384
2017-01-31T12:05:10.081Z,388
2017-01-31T12:05:42.796Z,396
2017-01-31T12:06:15.531Z,400
2017-01-31T12:06:48.260Z,400
2017-01-31T12:07:20.993Z,408
2017-01-31T12:07:53.724Z,424
2017-01-31T12:08:26.472Z,432
2017-01-31T12:08:59.206Z,440
2017-01-31T12:09:31.953Z,444
2017-01-31T12:10:04.675Z,448
2017-01-31T12:10:37.418Z,456
2017-01-31T12:11:10.147Z,460
2017-01-31T12:11:42.866Z,468
2017-01-31T12:12:15.595Z,468
2017-01-31T12:12:48.343Z,476
2017-01-31T12:13:21.070Z,484
2017-01-31T12:13:53.797Z,496
2017-01-31T12:14:26.525Z,492
2017-01-31T12:14:59.252Z,480
2017-01-31T12:15:31.982Z,476
2017-01-31T12:16:04.720Z,480
2017-01-31T12:16:37.458Z,492
2017-01-31T12:17:10.257Z,496
2017-01-31T12:17:42.984Z,496
2017-01-31T12:18:15.754Z,484
2017-01-31T12:18:48.515Z,484
2017-01-31T12:19:21.247Z,476
2017-01-31T12:19:53.983Z,472
2017-01-31T12:20:27.661Z,476
2017-01-31T12:21:00.445Z,484
2017-01-31T12:21:33.179Z,484
2017-01-31T12:22:05.925Z,480
2017-01-31T12:22:38.679Z,472
2017-01-31T12:23:11.411Z,456
2017-01-31T12:23:44.159Z,448
2017-01-31T12:24:16.931Z,452
2017-01-31T12:24:49.662Z,456
2017-01-31T12:25:22.394Z,468
2017-01-31T12:25:55.383Z,480
2017-01-31T12:26:28.154Z,484
2017-01-31T12:27:00.899Z,476
2017-01-31T12:27:33.631Z,476
2017-01-31T12:28:06.356Z,476
2017-01-31T12:28:39.108Z,468
2017-01-31T12:29:11.864Z,460
2017-01-31T12:29:44.596Z,452
2017-01-31T12:30:17.329Z,452
2017-01-31T12:30:50.066Z,444
2017-01-31T12:31:22.926Z,448
2017-01-31T12:31:55.716Z,456
2017-01-31T12:32:28.441Z,476
2017-01-31T12:33:01.298Z,484
2017-01-31T12:33:35.105Z,488
2017-01-31T12:34:07.837Z,500
2017-01-31T12:34:40.553Z,508
2017-01-31T12:35:13.295Z,516
2017-01-31T12:35:46.021Z,528
2017-01-31T12:36:18.749Z,544
2017-01-31T12:36:51.484Z,552
2017-01-31T12:37:24.210Z,548
2017-01-31T12:37:56.938Z,540
2017-01-31T12:38:29.656Z,524
2017-01-31T12:39:02.395Z,508
2017-01-31T12:39:35.238Z,492
2017-01-31T12:40:07.973Z,484
2017-01-31T12:40:41.067Z,476
2017-01-31T12:41:13.899Z,464
2017-01-31T12:41:46.764Z,452
2017-01-31T12:42:19.491Z,444
2017-01-31T12:42:52.255Z,436
2017-01-31T12:43:24.983Z,432
2017-01-31T12:43:57.715Z,428
2017-01-31T12:44:30.467Z,428
2017-01-31T12:45:03.199Z,432
2017-01-31T12:45:35.930Z,432
2017-01-31T12:46:08.656Z,432
2017-01-31T12:46:41.376Z,432
2017-01-31T12:47:14.115Z,432
2017-01-31T12:47:46.849Z,428
2017-01-31T12:48:19.574Z,440
2017-01-31T12:48:52.310Z,456
2017-01-31T12:49:25.048Z,464
2017-01-31T12:49:57.771Z,476
2017-01-31T12:50:30.496Z,492
2017-01-31T12:51:03.241Z,496
2017-01-31T12:51:35.973Z,492
2017-01-31T12:52:08.713Z,488
2017-01-31T12:52:41.456Z,480
2017-01-31T12:53:14.195Z,468
2017-01-31T12:53:46.935Z,468
2017-01-31T12:54:19.704Z,476
2017-01-31T12:54:52.425Z,480
2017-01-31T12:55:25.152Z,488
2017-01-31T12:55:57.894Z,492
2017-01-31T12:56:30.617Z,496
2017-01-31T12:57:03.383Z,500
2017-01-31T12:57:36.109Z,504
2017-01-31T12:58:08.841Z,500
2017-01-31T12:58:41.589Z,492
2017-01-31T12:59:14.321Z,484
2017-01-31T12:59:47.062Z,468
2017-01-31T13:00:19.784Z,460
2017-01-31T13:00:52.528Z,460
2017-01-31T13:01:25.267Z,468
2017-01-31T13:01:57.997Z,472
2017-01-31T13:02:30.725Z,468
2017-01-31T13:03:03.650Z,460
2017-01-31T13:03:36.381Z,452
2017-01-31T13:04:09.105Z,444
2017-01-31T13:04:41.838Z,436
2017-01-31T13:05:15.144Z,432
2017-01-31T13:05:47.857Z,424
2017-01-31T13:06:21.240Z,416
2017-01-31T13:06:53.975Z,400
2017-01-31T13:07:26.716Z,392
2017-01-31T13:07:59.455Z,376
2017-01-31T13:08:32.166Z,364
2017-01-31T13:09:04.889Z,356
2017-01-31T13:09:37.610Z,348
2017-01-31T13:10:10.345Z,344
2017-01-31T13:10:43.072Z,348
2017-01-31T13:11:15.808Z,344
2017-01-31T13:11:48.530Z,344
2017-01-31T13:12:21.244Z,348
2017-01-31T13:12:54.219Z,352
2017-01-31T13:13:27.062Z,360
2017-01-31T13:13:59.982Z,356
2017-01-31T13:14:32.719Z,352
2017-01-31T13:15:05.445Z,340
2017-01-31T13:15:38.207Z,336
2017-01-31T13:16:10.949Z,332
2017-01-31T13:16:43.681Z,332
2017-01-31T13:17:16.425Z,332
2017-01-31T13:17:49.160Z,328
2017-01-31T13:18:22.408Z,332
2017-01-31T13:18:55.178Z,328
2017-01-31T13:19:27.896Z,328
2017-01-31T13:20:00.639Z,324
2017-01-31T13:20:33.376Z,324
2017-01-31T13:21:06.609Z,324
2017-01-31T13:21:39.337Z,320
2017-01-31T13:22:12.631Z,320
2017-01-31T13:22:46.509Z,324
2017-01-31T13:23:21.041Z,328
2017-01-31T13:23:53.765Z,336
2017-01-31T13:24:26.499Z,344
2017-01-31T13:25:00.189Z,348
2017-01-31T13:25:32.959Z,352
2017-01-31T13:26:05.800Z,360
2017-01-31T13:26:39.285Z,368
2017-01-31T13:27:11.997Z,372
2017-01-31T13:27:44.737Z,380
2017-01-31T13:28:17.475Z,388
2017-01-31T13:28:50.221Z,392
2017-01-31T13:29:22.956Z,392
2017-01-31T13:29:55.686Z,384
2017-01-31T13:30:28.410Z,376
2017-01-31T13:31:01.136Z,368
2017-01-31T13:31:33.993Z,360
2017-01-31T13:32:06.714Z,352
2017-01-31T13:32:39.740Z,348
2017-01-31T13:33:12.507Z,344
2017-01-31T13:33:45.237Z,340
2017-01-31T13:34:17.965Z,340
2017-01-31T13:34:50.701Z,332
2017-01-31T13:35:23.611Z,332
2017-01-31T13:35:56.342Z,328
2017-01-31T13:36:29.649Z,324
2017-01-31T13:37:02.376Z,320
2017-01-31T13:37:35.109Z,316
2017-01-31T13:38:07.846Z,312
2017-01-31T13:38:40.704Z,308
2017-01-31T13:39:13.600Z,304
2017-01-31T13:39:46.949Z,300
2017-01-31T13:40:20.613Z,300
2017-01-31T13:40:53.348Z,304
2017-01-31T13:41:26.767Z,308
2017-01-31T13:41:59.498Z,308
2017-01-31T13:42:32.696Z,312
2017-01-31T13:43:05.432Z,316
2017-01-31T13:43:38.169Z,324
2017-01-31T13:44:10.901Z,332
2017-01-31T13:44:43.656Z,336
2017-01-31T13:45:17.238Z,340
2017-01-31T13:45:50.078Z,340
2017-01-31T13:46:23.696Z,348
2017-01-31T13:46:56.697Z,348
2017-01-31T13:47:29.837Z,348
2017-01-31T13:48:02.684Z,352
2017-01-31T13:48:35.422Z,356
2017-01-31T13:49:08.147Z,360
2017-01-31T13:49:40.866Z,360
2017-01-31T13:50:13.970Z,364
2017-01-31T13:50:46.718Z,360
2017-01-31T13:51:19.810Z,360
2017-01-31T13:51:52.553Z,356
2017-01-31T13:52:25.274Z,352
2017-01-31T13:52:58.007Z,352
2017-01-31T13:53:30.855Z,344
2017-01-31T13:54:03.656Z,344
2017-01-31T13:54:36.385Z,344
2017-01-31T13:55:09.126Z,340
2017-01-31T13:55:41.852Z,336
2017-01-31T13:56:14.600Z,336
2017-01-31T13:56:47.335Z,336
2017-01-31T13:57:20.059Z,336
2017-01-31T13:57:54.313Z,340
2017-01-31T13:58:27.148Z,340
2017-01-31T13:58:59.886Z,336
2017-01-31T13:59:32.614Z,332
2017-01-31T14:00:05.357Z,328
2017-01-31T14:00:38.071Z,328
2017-01-31T14:01:10.805Z,320
2017-01-31T14:01:43.543Z,320
2017-01-31T14:02:16.275Z,316
2017-01-31T14:02:49.008Z,304
2017-01-31T14:03:21.755Z,300
2017-01-31T14:03:54.473Z,288
2017-01-31T14:04:27.203Z,280
2017-01-31T14:05:00.022Z,272
2017-01-31T14:05:32.751Z,268
2017-01-31T14:06:05.495Z,264
2017-01-31T14:06:38.220Z,256
2017-01-31T14:07:10.960Z,252
2017-01-31T14:07:43.693Z,252
2017-01-31T14:08:16.451Z,252
2017-01-31T14:08:49.211Z,256
2017-01-31T14:09:21.955Z,256
2017-01-31T14:09:54.683Z,260
2017-01-31T14:10:27.418Z,260
2017-01-31T14:11:00.139Z,260
2017-01-31T14:11:32.873Z,264
2017-01-31T14:12:05.599Z,268
2017-01-31T14:12:38.330Z,264
2017-01-31T14:13:11.070Z,260
2017-01-31T14:13:43.804Z,256
2017-01-31T14:14:16.544Z,248
2017-01-31T14:14:49.257Z,244
2017-01-31T14:15:21.988Z,236
2017-01-31T14:15:54.719Z,228
2017-01-31T14:16:27.461Z,224